sensor_id;sensor_type;location;lat;lon;timestamp;temperature;humidity
11617;DHT22;5864;52.998;9.068;2023-12-07T00:02:42;2.40;99.90
11617;DHT22;5864;52.998;9.068;2023-12-07T00:05:29;2.40;99.90
11617;DHT22;5864;52.998;9.068;2023-12-07T00:08:14;2.40;99.90
11617;DHT22;5864;52.998;9.068;2023-12-07T00:11:00;2.50;99.90
11617;DHT22;5864;52.998;9.068;2023-12-07T00:13:46;2.50;99.90
11617;DHT22;5864;52.998;9.068;2023-12-07T00:16:32;2.50;99.90
11617;DHT22;5864;52.998;9.068;2023-12-07T00:19:18;2.50;99.90
11617;DHT22;5864;52.998;9.068;2023-12-07T00:22:05;2.50;99.90
11617;DHT22;5864;52.998;9.068;2023-12-07T00:24:50;2.50;99.90
11617;DHT22;5864;52.998;9.068;2023-12-07T00:27:36;2.50;99.90
11617;DHT22;5864;52.998;9.068;2023-12-07T00:30:21;2.50;99.90
11617;DHT22;5864;52.998;9.068;2023-12-07T00:33:07;2.50;99.90
11617;DHT22;5864;52.998;9.068;2023-12-07T00:35:53;2.50;99.90
11617;DHT22;5864;52.998;9.068;2023-12-07T00:38:40;2.50;99.90
11617;DHT22;5864;52.998;9.068;2023-12-07T00:41:26;2.50;99.90
11617;DHT22;5864;52.998;9.068;2023-12-07T00:44:12;2.50;99.90
11617;DHT22;5864;52.998;9.068;2023-12-07T00:46:57;2.50;99.90
11617;DHT22;5864;52.998;9.068;2023-12-07T00:49:43;2.50;99.90
11617;DHT22;5864;52.998;9.068;2023-12-07T00:52:28;2.50;99.90
11617;DHT22;5864;52.998;9.068;2023-12-07T00:55:15;2.50;99.90
11617;DHT22;5864;52.998;9.068;2023-12-07T00:58:01;2.50;99.90
11617;DHT22;5864;52.998;9.068;2023-12-07T01:00:47;2.50;99.90
11617;DHT22;5864;52.998;9.068;2023-12-07T01:03:33;2.50;99.90
11617;DHT22;5864;52.998;9.068;2023-12-07T01:06:19;2.50;99.90
11617;DHT22;5864;52.998;9.068;2023-12-07T01:09:04;2.50;99.90
11617;DHT22;5864;52.998;9.068;2023-12-07T01:11:52;2.50;99.90
11617;DHT22;5864;52.998;9.068;2023-12-07T01:14:38;2.50;99.90
11617;DHT22;5864;52.998;9.068;2023-12-07T01:17:23;2.50;99.90
11617;DHT22;5864;52.998;9.068;2023-12-07T01:20:10;2.50;99.90
11617;DHT22;5864;52.998;9.068;2023-12-07T01:22:56;2.50;99.90
11617;DHT22;5864;52.998;9.068;2023-12-07T01:25:42;2.50;99.90
11617;DHT22;5864;52.998;9.068;2023-12-07T01:28:29;2.50;99.90
11617;DHT22;5864;52.998;9.068;2023-12-07T01:31:15;2.50;99.90
11617;DHT22;5864;52.998;9.068;2023-12-07T01:34:01;2.50;99.90
11617;DHT22;5864;52.998;9.068;2023-12-07T01:36:46;2.50;99.90
11617;DHT22;5864;52.998;9.068;2023-12-07T01:39:32;2.50;99.90
11617;DHT22;5864;52.998;9.068;2023-12-07T01:42:18;2.50;99.90
11617;DHT22;5864;52.998;9.068;2023-12-07T01:45:06;2.50;99.90
11617;DHT22;5864;52.998;9.068;2023-12-07T01:47:52;2.60;99.90
11617;DHT22;5864;52.998;9.068;2023-12-07T01:50:39;2.50;99.90
11617;DHT22;5864;52.998;9.068;2023-12-07T01:53:26;2.60;99.90
11617;DHT22;5864;52.998;9.068;2023-12-07T01:56:12;2.50;99.90
11617;DHT22;5864;52.998;9.068;2023-12-07T01:58:58;2.50;99.90
11617;DHT22;5864;52.998;9.068;2023-12-07T02:01:45;2.50;99.90
11617;DHT22;5864;52.998;9.068;2023-12-07T02:04:31;2.50;99.90
11617;DHT22;5864;52.998;9.068;2023-12-07T02:07:17;2.60;99.90
11617;DHT22;5864;52.998;9.068;2023-12-07T02:10:04;2.50;99.90
11617;DHT22;5864;52.998;9.068;2023-12-07T02:12:50;2.50;99.90
11617;DHT22;5864;52.998;9.068;2023-12-07T02:15:37;2.60;99.90
11617;DHT22;5864;52.998;9.068;2023-12-07T02:18:28;2.50;99.90
11617;DHT22;5864;52.998;9.068;2023-12-07T02:21:21;2.50;99.90
11617;DHT22;5864;52.998;9.068;2023-12-07T02:24:08;2.60;99.90
11617;DHT22;5864;52.998;9.068;2023-12-07T02:26:57;2.60;99.90
11617;DHT22;5864;52.998;9.068;2023-12-07T02:29:43;2.60;99.90
11617;DHT22;5864;52.998;9.068;2023-12-07T02:32:29;2.50;99.90
11617;DHT22;5864;52.998;9.068;2023-12-07T02:35:15;2.50;99.90
11617;DHT22;5864;52.998;9.068;2023-12-07T02:38:01;2.50;99.90
11617;DHT22;5864;52.998;9.068;2023-12-07T02:40:48;2.50;99.90
11617;DHT22;5864;52.998;9.068;2023-12-07T02:43:36;2.50;99.90
11617;DHT22;5864;52.998;9.068;2023-12-07T02:46:22;2.60;99.90
11617;DHT22;5864;52.998;9.068;2023-12-07T02:49:08;2.50;99.90
11617;DHT22;5864;52.998;9.068;2023-12-07T02:51:54;2.50;99.90
11617;DHT22;5864;52.998;9.068;2023-12-07T02:54:39;2.50;99.90
11617;DHT22;5864;52.998;9.068;2023-12-07T02:57:25;2.50;99.90
11617;DHT22;5864;52.998;9.068;2023-12-07T03:00:13;2.50;99.90
11617;DHT22;5864;52.998;9.068;2023-12-07T03:02:59;2.60;99.90
11617;DHT22;5864;52.998;9.068;2023-12-07T03:05:44;2.50;99.90
11617;DHT22;5864;52.998;9.068;2023-12-07T03:08:30;2.50;99.90
11617;DHT22;5864;52.998;9.068;2023-12-07T03:11:16;2.60;99.90
11617;DHT22;5864;52.998;9.068;2023-12-07T03:14:02;2.60;99.90
11617;DHT22;5864;52.998;9.068;2023-12-07T03:16:49;2.60;99.90
11617;DHT22;5864;52.998;9.068;2023-12-07T03:19:37;2.60;99.90
11617;DHT22;5864;52.998;9.068;2023-12-07T03:22:23;2.60;99.90
11617;DHT22;5864;52.998;9.068;2023-12-07T03:25:09;2.60;99.90
11617;DHT22;5864;52.998;9.068;2023-12-07T03:27:54;2.60;99.90
11617;DHT22;5864;52.998;9.068;2023-12-07T03:30:40;2.50;99.90
11617;DHT22;5864;52.998;9.068;2023-12-07T03:33:27;2.50;99.90
11617;DHT22;5864;52.998;9.068;2023-12-07T03:36:12;2.60;99.90
11617;DHT22;5864;52.998;9.068;2023-12-07T03:38:58;2.60;99.90
11617;DHT22;5864;52.998;9.068;2023-12-07T03:41:44;2.60;99.90
11617;DHT22;5864;52.998;9.068;2023-12-07T03:44:30;2.60;99.90
11617;DHT22;5864;52.998;9.068;2023-12-07T03:47:16;2.50;99.90
11617;DHT22;5864;52.998;9.068;2023-12-07T03:50:04;2.50;99.90
11617;DHT22;5864;52.998;9.068;2023-12-07T03:52:50;2.50;99.90
11617;DHT22;5864;52.998;9.068;2023-12-07T03:55:36;2.50;99.90
11617;DHT22;5864;52.998;9.068;2023-12-07T03:58:22;2.50;99.90
11617;DHT22;5864;52.998;9.068;2023-12-07T04:01:07;2.50;99.90
11617;DHT22;5864;52.998;9.068;2023-12-07T04:03:54;2.50;99.90
11617;DHT22;5864;52.998;9.068;2023-12-07T04:06:41;2.50;99.90
11617;DHT22;5864;52.998;9.068;2023-12-07T04:09:27;2.50;99.90
11617;DHT22;5864;52.998;9.068;2023-12-07T04:12:13;2.60;99.90
11617;DHT22;5864;52.998;9.068;2023-12-07T04:14:58;2.50;99.90
11617;DHT22;5864;52.998;9.068;2023-12-07T04:17:44;2.60;99.90
11617;DHT22;5864;52.998;9.068;2023-12-07T04:20:30;2.50;99.90
11617;DHT22;5864;52.998;9.068;2023-12-07T04:23:17;2.60;99.90
11617;DHT22;5864;52.998;9.068;2023-12-07T04:26:03;2.50;99.90
11617;DHT22;5864;52.998;9.068;2023-12-07T04:28:50;2.50;99.90
11617;DHT22;5864;52.998;9.068;2023-12-07T04:31:36;2.50;99.90
11617;DHT22;5864;52.998;9.068;2023-12-07T04:34:21;2.60;99.90
11617;DHT22;5864;52.998;9.068;2023-12-07T04:37:07;2.50;99.90
11617;DHT22;5864;52.998;9.068;2023-12-07T04:39:54;2.50;99.90
11617;DHT22;5864;52.998;9.068;2023-12-07T04:42:39;2.50;99.90
11617;DHT22;5864;52.998;9.068;2023-12-07T04:45:25;2.60;99.90
11617;DHT22;5864;52.998;9.068;2023-12-07T04:48:10;2.60;99.90
11617;DHT22;5864;52.998;9.068;2023-12-07T04:50:56;2.60;99.90
11617;DHT22;5864;52.998;9.068;2023-12-07T04:53:42;2.60;99.90
11617;DHT22;5864;52.998;9.068;2023-12-07T04:56:29;2.60;99.90
11617;DHT22;5864;52.998;9.068;2023-12-07T04:59:14;2.50;99.90
11617;DHT22;5864;52.998;9.068;2023-12-07T05:02:00;2.60;99.90
11617;DHT22;5864;52.998;9.068;2023-12-07T05:04:46;2.60;99.90
11617;DHT22;5864;52.998;9.068;2023-12-07T05:07:32;2.60;99.90
11617;DHT22;5864;52.998;9.068;2023-12-07T05:10:18;2.60;99.90
11617;DHT22;5864;52.998;9.068;2023-12-07T05:13:05;2.50;99.90
11617;DHT22;5864;52.998;9.068;2023-12-07T05:15:51;2.50;99.90
11617;DHT22;5864;52.998;9.068;2023-12-07T05:18:37;2.60;99.90
11617;DHT22;5864;52.998;9.068;2023-12-07T05:21:22;2.60;99.90
11617;DHT22;5864;52.998;9.068;2023-12-07T05:24:08;2.50;99.90
11617;DHT22;5864;52.998;9.068;2023-12-07T05:26:54;2.50;99.90
11617;DHT22;5864;52.998;9.068;2023-12-07T05:29:41;2.60;99.90
11617;DHT22;5864;52.998;9.068;2023-12-07T05:32:26;2.60;99.90
11617;DHT22;5864;52.998;9.068;2023-12-07T05:35:12;2.70;99.90
11617;DHT22;5864;52.998;9.068;2023-12-07T05:37:57;2.60;99.90
11617;DHT22;5864;52.998;9.068;2023-12-07T05:40:43;2.60;99.90
11617;DHT22;5864;52.998;9.068;2023-12-07T05:43:29;2.60;99.90
11617;DHT22;5864;52.998;9.068;2023-12-07T05:46:16;2.60;99.90
11617;DHT22;5864;52.998;9.068;2023-12-07T05:49:02;2.60;99.90
11617;DHT22;5864;52.998;9.068;2023-12-07T05:51:48;2.50;99.90
11617;DHT22;5864;52.998;9.068;2023-12-07T05:54:34;2.60;99.90
11617;DHT22;5864;52.998;9.068;2023-12-07T05:57:20;2.60;99.90
11617;DHT22;5864;52.998;9.068;2023-12-07T06:00:06;2.70;99.90
11617;DHT22;5864;52.998;9.068;2023-12-07T06:02:55;2.60;99.90
11617;DHT22;5864;52.998;9.068;2023-12-07T06:05:40;2.60;99.90
11617;DHT22;5864;52.998;9.068;2023-12-07T06:08:26;2.60;99.90
11617;DHT22;5864;52.998;9.068;2023-12-07T06:11:12;2.60;99.90
11617;DHT22;5864;52.998;9.068;2023-12-07T06:13:57;2.60;99.90
11617;DHT22;5864;52.998;9.068;2023-12-07T06:16:44;2.60;99.90
11617;DHT22;5864;52.998;9.068;2023-12-07T06:19:31;2.60;99.90
11617;DHT22;5864;52.998;9.068;2023-12-07T06:22:16;2.60;99.90
11617;DHT22;5864;52.998;9.068;2023-12-07T06:25:04;2.60;99.90
11617;DHT22;5864;52.998;9.068;2023-12-07T06:27:50;2.60;99.90
11617;DHT22;5864;52.998;9.068;2023-12-07T06:30:35;2.70;99.90
11617;DHT22;5864;52.998;9.068;2023-12-07T06:33:21;2.70;99.90
11617;DHT22;5864;52.998;9.068;2023-12-07T06:36:08;2.60;99.90
11617;DHT22;5864;52.998;9.068;2023-12-07T06:38:54;2.70;99.90
11617;DHT22;5864;52.998;9.068;2023-12-07T06:41:40;2.70;99.90
11617;DHT22;5864;52.998;9.068;2023-12-07T06:44:26;2.60;99.90
11617;DHT22;5864;52.998;9.068;2023-12-07T06:47:11;2.60;99.90
11617;DHT22;5864;52.998;9.068;2023-12-07T06:49:57;2.70;99.90
11617;DHT22;5864;52.998;9.068;2023-12-07T06:52:44;2.70;99.90
11617;DHT22;5864;52.998;9.068;2023-12-07T06:55:30;2.60;99.90
11617;DHT22;5864;52.998;9.068;2023-12-07T06:58:16;2.50;99.90
11617;DHT22;5864;52.998;9.068;2023-12-07T07:01:02;2.50;99.90
11617;DHT22;5864;52.998;9.068;2023-12-07T07:03:47;2.60;99.90
11617;DHT22;5864;52.998;9.068;2023-12-07T07:06:33;2.60;99.90
11617;DHT22;5864;52.998;9.068;2023-12-07T07:09:20;2.60;99.90
11617;DHT22;5864;52.998;9.068;2023-12-07T07:12:06;2.60;99.90
11617;DHT22;5864;52.998;9.068;2023-12-07T07:14:53;2.60;99.90
11617;DHT22;5864;52.998;9.068;2023-12-07T07:17:38;2.60;99.90
11617;DHT22;5864;52.998;9.068;2023-12-07T07:20:25;2.70;99.90
11617;DHT22;5864;52.998;9.068;2023-12-07T07:23:12;2.70;99.90
11617;DHT22;5864;52.998;9.068;2023-12-07T07:25:58;2.70;99.90
11617;DHT22;5864;52.998;9.068;2023-12-07T07:28:44;2.70;99.90
11617;DHT22;5864;52.998;9.068;2023-12-07T07:31:29;2.70;99.90
11617;DHT22;5864;52.998;9.068;2023-12-07T07:34:15;2.60;99.90
11617;DHT22;5864;52.998;9.068;2023-12-07T07:37:01;2.70;99.90
11617;DHT22;5864;52.998;9.068;2023-12-07T07:39:47;2.70;99.90
11617;DHT22;5864;52.998;9.068;2023-12-07T07:42:34;2.70;99.90
11617;DHT22;5864;52.998;9.068;2023-12-07T07:45:19;2.70;99.90
11617;DHT22;5864;52.998;9.068;2023-12-07T07:48:05;2.70;99.90
11617;DHT22;5864;52.998;9.068;2023-12-07T07:50:51;2.70;99.90
11617;DHT22;5864;52.998;9.068;2023-12-07T07:53:36;2.70;99.90
11617;DHT22;5864;52.998;9.068;2023-12-07T07:56:22;2.70;99.90
11617;DHT22;5864;52.998;9.068;2023-12-07T07:59:09;2.70;99.90
11617;DHT22;5864;52.998;9.068;2023-12-07T08:01:55;2.70;99.90
11617;DHT22;5864;52.998;9.068;2023-12-07T08:04:40;2.70;99.90
11617;DHT22;5864;52.998;9.068;2023-12-07T08:07:26;2.70;99.90
11617;DHT22;5864;52.998;9.068;2023-12-07T08:10:12;2.70;99.90
11617;DHT22;5864;52.998;9.068;2023-12-07T08:12:58;2.70;99.90
11617;DHT22;5864;52.998;9.068;2023-12-07T08:15:45;2.70;99.90
11617;DHT22;5864;52.998;9.068;2023-12-07T08:18:30;2.70;99.90
11617;DHT22;5864;52.998;9.068;2023-12-07T08:21:20;2.70;99.90
11617;DHT22;5864;52.998;9.068;2023-12-07T08:24:06;2.70;99.90
11617;DHT22;5864;52.998;9.068;2023-12-07T08:26:52;2.70;99.90
11617;DHT22;5864;52.998;9.068;2023-12-07T08:29:38;2.70;99.90
11617;DHT22;5864;52.998;9.068;2023-12-07T08:32:25;2.70;99.90
11617;DHT22;5864;52.998;9.068;2023-12-07T08:35:11;2.70;99.90
11617;DHT22;5864;52.998;9.068;2023-12-07T08:37:56;2.80;99.90
11617;DHT22;5864;52.998;9.068;2023-12-07T08:40:42;2.80;99.90
11617;DHT22;5864;52.998;9.068;2023-12-07T08:43:28;2.80;99.90
11617;DHT22;5864;52.998;9.068;2023-12-07T08:46:14;2.80;99.90
11617;DHT22;5864;52.998;9.068;2023-12-07T08:49:01;2.80;99.90
11617;DHT22;5864;52.998;9.068;2023-12-07T08:51:47;2.80;99.90
11617;DHT22;5864;52.998;9.068;2023-12-07T08:54:33;2.90;99.90
11617;DHT22;5864;52.998;9.068;2023-12-07T08:57:20;2.90;99.90
11617;DHT22;5864;52.998;9.068;2023-12-07T09:00:06;3.00;99.90
11617;DHT22;5864;52.998;9.068;2023-12-07T09:02:52;3.00;99.90
11617;DHT22;5864;52.998;9.068;2023-12-07T09:05:40;2.90;99.90
11617;DHT22;5864;52.998;9.068;2023-12-07T09:08:25;3.00;99.90
11617;DHT22;5864;52.998;9.068;2023-12-07T09:11:11;3.00;99.90
11617;DHT22;5864;52.998;9.068;2023-12-07T09:13:57;3.00;99.90
11617;DHT22;5864;52.998;9.068;2023-12-07T09:16:43;3.00;99.90
11617;DHT22;5864;52.998;9.068;2023-12-07T09:19:29;3.00;99.90
11617;DHT22;5864;52.998;9.068;2023-12-07T09:22:16;3.10;99.90
11617;DHT22;5864;52.998;9.068;2023-12-07T09:25:02;3.20;99.90
11617;DHT22;5864;52.998;9.068;2023-12-07T09:27:48;3.10;99.90
11617;DHT22;5864;52.998;9.068;2023-12-07T09:30:35;3.20;99.90
11617;DHT22;5864;52.998;9.068;2023-12-07T09:33:21;3.20;99.90
11617;DHT22;5864;52.998;9.068;2023-12-07T09:36:07;3.20;99.90
11617;DHT22;5864;52.998;9.068;2023-12-07T09:38:56;3.20;99.90
11617;DHT22;5864;52.998;9.068;2023-12-07T09:41:43;3.20;99.90
11617;DHT22;5864;52.998;9.068;2023-12-07T09:44:30;3.20;99.90
11617;DHT22;5864;52.998;9.068;2023-12-07T09:47:16;3.20;99.90
11617;DHT22;5864;52.998;9.068;2023-12-07T09:50:02;3.30;99.90
11617;DHT22;5864;52.998;9.068;2023-12-07T09:52:49;3.30;99.90
11617;DHT22;5864;52.998;9.068;2023-12-07T09:55:36;3.30;99.90
11617;DHT22;5864;52.998;9.068;2023-12-07T09:58:22;3.30;99.90
11617;DHT22;5864;52.998;9.068;2023-12-07T10:01:07;3.30;99.90
11617;DHT22;5864;52.998;9.068;2023-12-07T10:04:14;3.30;99.90
11617;DHT22;5864;52.998;9.068;2023-12-07T10:07:00;3.40;99.90
11617;DHT22;5864;52.998;9.068;2023-12-07T10:09:47;3.40;99.90
11617;DHT22;5864;52.998;9.068;2023-12-07T10:12:35;3.40;99.90
11617;DHT22;5864;52.998;9.068;2023-12-07T10:15:22;3.50;99.90
11617;DHT22;5864;52.998;9.068;2023-12-07T10:18:08;3.50;99.90
11617;DHT22;5864;52.998;9.068;2023-12-07T10:20:54;3.50;99.90
11617;DHT22;5864;52.998;9.068;2023-12-07T10:23:41;3.50;99.90
11617;DHT22;5864;52.998;9.068;2023-12-07T10:26:30;3.50;99.90
11617;DHT22;5864;52.998;9.068;2023-12-07T10:29:19;3.50;99.90
11617;DHT22;5864;52.998;9.068;2023-12-07T10:32:10;3.50;99.90
11617;DHT22;5864;52.998;9.068;2023-12-07T10:34:55;3.40;99.90
11617;DHT22;5864;52.998;9.068;2023-12-07T10:37:43;3.40;99.90
11617;DHT22;5864;52.998;9.068;2023-12-07T10:40:29;3.50;99.90
11617;DHT22;5864;52.998;9.068;2023-12-07T10:43:15;3.60;99.90
11617;DHT22;5864;52.998;9.068;2023-12-07T10:46:07;3.50;99.90
11617;DHT22;5864;52.998;9.068;2023-12-07T10:48:57;3.60;99.90
11617;DHT22;5864;52.998;9.068;2023-12-07T10:51:50;3.60;99.90
11617;DHT22;5864;52.998;9.068;2023-12-07T10:54:41;3.70;99.90
11617;DHT22;5864;52.998;9.068;2023-12-07T10:57:29;3.80;99.90
11617;DHT22;5864;52.998;9.068;2023-12-07T11:00:16;3.70;99.90
11617;DHT22;5864;52.998;9.068;2023-12-07T11:03:05;3.70;99.90
11617;DHT22;5864;52.998;9.068;2023-12-07T11:05:50;3.70;99.90
11617;DHT22;5864;52.998;9.068;2023-12-07T11:08:40;3.70;99.90
11617;DHT22;5864;52.998;9.068;2023-12-07T11:11:31;3.80;99.90
11617;DHT22;5864;52.998;9.068;2023-12-07T11:14:18;3.70;99.90
11617;DHT22;5864;52.998;9.068;2023-12-07T11:17:04;3.80;99.90
11617;DHT22;5864;52.998;9.068;2023-12-07T11:19:51;3.80;99.90
11617;DHT22;5864;52.998;9.068;2023-12-07T11:22:36;3.80;99.90
11617;DHT22;5864;52.998;9.068;2023-12-07T11:25:22;3.80;99.90
11617;DHT22;5864;52.998;9.068;2023-12-07T11:28:10;3.80;99.90
11617;DHT22;5864;52.998;9.068;2023-12-07T11:30:56;3.80;99.90
11617;DHT22;5864;52.998;9.068;2023-12-07T11:33:42;3.70;99.90
11617;DHT22;5864;52.998;9.068;2023-12-07T11:36:29;3.70;99.90
11617;DHT22;5864;52.998;9.068;2023-12-07T11:39:17;3.70;99.90
11617;DHT22;5864;52.998;9.068;2023-12-07T11:42:11;3.80;99.90
11617;DHT22;5864;52.998;9.068;2023-12-07T11:44:56;3.80;99.90
11617;DHT22;5864;52.998;9.068;2023-12-07T11:47:42;3.70;99.90
11617;DHT22;5864;52.998;9.068;2023-12-07T11:50:32;3.70;99.90
11617;DHT22;5864;52.998;9.068;2023-12-07T11:53:21;3.60;99.90
11617;DHT22;5864;52.998;9.068;2023-12-07T11:56:09;3.60;99.90
11617;DHT22;5864;52.998;9.068;2023-12-07T11:58:56;3.60;99.90
11617;DHT22;5864;52.998;9.068;2023-12-07T12:01:46;3.60;99.90
11617;DHT22;5864;52.998;9.068;2023-12-07T12:04:32;3.60;99.90
11617;DHT22;5864;52.998;9.068;2023-12-07T12:07:18;3.60;99.90
11617;DHT22;5864;52.998;9.068;2023-12-07T12:10:06;3.50;99.90
11617;DHT22;5864;52.998;9.068;2023-12-07T12:12:53;3.50;99.90
11617;DHT22;5864;52.998;9.068;2023-12-07T12:15:39;3.50;99.90
11617;DHT22;5864;52.998;9.068;2023-12-07T12:18:25;3.60;99.90
11617;DHT22;5864;52.998;9.068;2023-12-07T12:21:10;3.60;99.90
11617;DHT22;5864;52.998;9.068;2023-12-07T12:23:58;3.60;99.90
11617;DHT22;5864;52.998;9.068;2023-12-07T12:26:44;3.60;99.90
11617;DHT22;5864;52.998;9.068;2023-12-07T12:29:33;3.60;99.90
11617;DHT22;5864;52.998;9.068;2023-12-07T12:32:18;3.70;99.90
11617;DHT22;5864;52.998;9.068;2023-12-07T12:35:08;3.60;99.90
11617;DHT22;5864;52.998;9.068;2023-12-07T12:37:54;3.60;99.90
11617;DHT22;5864;52.998;9.068;2023-12-07T12:40:40;3.60;99.90
11617;DHT22;5864;52.998;9.068;2023-12-07T12:43:28;3.70;99.90
11617;DHT22;5864;52.998;9.068;2023-12-07T12:46:15;3.70;99.90
11617;DHT22;5864;52.998;9.068;2023-12-07T12:49:01;3.60;99.90
11617;DHT22;5864;52.998;9.068;2023-12-07T12:51:48;3.60;99.90
11617;DHT22;5864;52.998;9.068;2023-12-07T12:54:33;3.60;99.90
11617;DHT22;5864;52.998;9.068;2023-12-07T12:57:19;3.60;99.90
11617;DHT22;5864;52.998;9.068;2023-12-07T13:00:07;3.60;99.90
11617;DHT22;5864;52.998;9.068;2023-12-07T13:02:55;3.60;99.90
11617;DHT22;5864;52.998;9.068;2023-12-07T13:05:41;3.60;99.90
11617;DHT22;5864;52.998;9.068;2023-12-07T13:08:27;3.60;99.90
11617;DHT22;5864;52.998;9.068;2023-12-07T13:11:15;3.60;99.90
11617;DHT22;5864;52.998;9.068;2023-12-07T13:14:01;3.60;99.90
11617;DHT22;5864;52.998;9.068;2023-12-07T13:16:52;3.60;99.90
11617;DHT22;5864;52.998;9.068;2023-12-07T13:19:38;3.60;99.90
11617;DHT22;5864;52.998;9.068;2023-12-07T13:22:23;3.60;99.90
11617;DHT22;5864;52.998;9.068;2023-12-07T13:25:09;3.60;99.90
11617;DHT22;5864;52.998;9.068;2023-12-07T13:27:57;3.50;99.90
11617;DHT22;5864;52.998;9.068;2023-12-07T13:30:44;3.60;99.90
11617;DHT22;5864;52.998;9.068;2023-12-07T13:33:31;3.60;99.90
11617;DHT22;5864;52.998;9.068;2023-12-07T13:36:17;3.50;99.90
11617;DHT22;5864;52.998;9.068;2023-12-07T13:39:03;3.50;99.90
11617;DHT22;5864;52.998;9.068;2023-12-07T13:41:48;3.50;99.90
11617;DHT22;5864;52.998;9.068;2023-12-07T13:44:34;3.40;99.90
11617;DHT22;5864;52.998;9.068;2023-12-07T13:47:20;3.50;99.90
11617;DHT22;5864;52.998;9.068;2023-12-07T13:50:10;3.50;99.90
11617;DHT22;5864;52.998;9.068;2023-12-07T13:52:56;3.50;99.90
11617;DHT22;5864;52.998;9.068;2023-12-07T13:55:42;3.60;99.90
11617;DHT22;5864;52.998;9.068;2023-12-07T13:58:28;3.60;99.90
11617;DHT22;5864;52.998;9.068;2023-12-07T14:01:13;3.60;99.90
11617;DHT22;5864;52.998;9.068;2023-12-07T14:03:59;3.50;99.90
11617;DHT22;5864;52.998;9.068;2023-12-07T14:06:47;3.60;99.90
11617;DHT22;5864;52.998;9.068;2023-12-07T14:09:32;3.60;99.90
11617;DHT22;5864;52.998;9.068;2023-12-07T14:12:18;3.70;99.90
11617;DHT22;5864;52.998;9.068;2023-12-07T14:15:04;3.70;99.90
11617;DHT22;5864;52.998;9.068;2023-12-07T14:17:50;3.80;99.90
11617;DHT22;5864;52.998;9.068;2023-12-07T14:20:36;3.80;99.90
11617;DHT22;5864;52.998;9.068;2023-12-07T14:23:23;3.70;99.90
11617;DHT22;5864;52.998;9.068;2023-12-07T14:26:09;3.80;99.90
11617;DHT22;5864;52.998;9.068;2023-12-07T14:28:54;3.70;99.90
11617;DHT22;5864;52.998;9.068;2023-12-07T14:31:40;3.80;99.90
11617;DHT22;5864;52.998;9.068;2023-12-07T14:34:25;3.70;99.90
11617;DHT22;5864;52.998;9.068;2023-12-07T14:37:11;3.60;99.90
11617;DHT22;5864;52.998;9.068;2023-12-07T14:39:58;3.60;99.90
11617;DHT22;5864;52.998;9.068;2023-12-07T14:42:44;3.60;99.90
11617;DHT22;5864;52.998;9.068;2023-12-07T14:45:30;3.60;99.90
11617;DHT22;5864;52.998;9.068;2023-12-07T14:48:16;3.50;99.90
11617;DHT22;5864;52.998;9.068;2023-12-07T14:51:02;3.40;99.90
11617;DHT22;5864;52.998;9.068;2023-12-07T14:53:47;3.40;99.90
11617;DHT22;5864;52.998;9.068;2023-12-07T14:56:36;3.30;99.90
11617;DHT22;5864;52.998;9.068;2023-12-07T14:59:21;3.40;99.90
11617;DHT22;5864;52.998;9.068;2023-12-07T15:02:07;3.30;99.90
11617;DHT22;5864;52.998;9.068;2023-12-07T15:04:55;3.20;99.90
11617;DHT22;5864;52.998;9.068;2023-12-07T15:07:41;3.00;99.90
11617;DHT22;5864;52.998;9.068;2023-12-07T15:10:26;3.00;99.90
11617;DHT22;5864;52.998;9.068;2023-12-07T15:13:13;3.00;99.90
11617;DHT22;5864;52.998;9.068;2023-12-07T15:15:59;3.10;99.90
11617;DHT22;5864;52.998;9.068;2023-12-07T15:18:45;3.10;99.90
11617;DHT22;5864;52.998;9.068;2023-12-07T15:21:31;3.10;99.90
11617;DHT22;5864;52.998;9.068;2023-12-07T15:24:17;3.10;99.90
11617;DHT22;5864;52.998;9.068;2023-12-07T15:27:06;3.10;99.90
11617;DHT22;5864;52.998;9.068;2023-12-07T15:29:53;3.10;99.90
11617;DHT22;5864;52.998;9.068;2023-12-07T15:32:39;3.20;99.90
11617;DHT22;5864;52.998;9.068;2023-12-07T15:35:25;3.20;99.90
11617;DHT22;5864;52.998;9.068;2023-12-07T15:38:10;3.20;99.90
11617;DHT22;5864;52.998;9.068;2023-12-07T15:40:56;3.20;99.90
11617;DHT22;5864;52.998;9.068;2023-12-07T15:43:42;3.20;99.90
11617;DHT22;5864;52.998;9.068;2023-12-07T15:46:29;3.20;99.90
11617;DHT22;5864;52.998;9.068;2023-12-07T15:49:15;3.10;99.90
11617;DHT22;5864;52.998;9.068;2023-12-07T15:52:01;3.10;99.90
11617;DHT22;5864;52.998;9.068;2023-12-07T15:54:47;3.00;99.90
11617;DHT22;5864;52.998;9.068;2023-12-07T15:57:32;2.80;99.90
11617;DHT22;5864;52.998;9.068;2023-12-07T16:00:19;2.60;99.90
11617;DHT22;5864;52.998;9.068;2023-12-07T16:03:05;2.50;99.90
11617;DHT22;5864;52.998;9.068;2023-12-07T16:05:51;2.60;99.90
11617;DHT22;5864;52.998;9.068;2023-12-07T16:08:37;2.60;99.90
11617;DHT22;5864;52.998;9.068;2023-12-07T16:11:23;2.50;99.90
11617;DHT22;5864;52.998;9.068;2023-12-07T16:14:08;2.50;99.90
11617;DHT22;5864;52.998;9.068;2023-12-07T16:16:55;2.40;99.90
11617;DHT22;5864;52.998;9.068;2023-12-07T16:19:42;2.50;99.90
11617;DHT22;5864;52.998;9.068;2023-12-07T16:22:28;2.50;99.90
11617;DHT22;5864;52.998;9.068;2023-12-07T16:25:13;2.50;99.90
11617;DHT22;5864;52.998;9.068;2023-12-07T16:27:59;2.50;99.90
11617;DHT22;5864;52.998;9.068;2023-12-07T16:30:45;2.50;99.90
11617;DHT22;5864;52.998;9.068;2023-12-07T16:33:30;2.50;99.90
11617;DHT22;5864;52.998;9.068;2023-12-07T16:36:18;2.40;99.90
11617;DHT22;5864;52.998;9.068;2023-12-07T16:39:03;2.40;99.90
11617;DHT22;5864;52.998;9.068;2023-12-07T16:41:49;2.40;99.90
11617;DHT22;5864;52.998;9.068;2023-12-07T16:44:35;2.40;99.90
11617;DHT22;5864;52.998;9.068;2023-12-07T16:47:20;2.40;99.90
11617;DHT22;5864;52.998;9.068;2023-12-07T16:50:07;2.30;99.90
11617;DHT22;5864;52.998;9.068;2023-12-07T16:52:54;2.30;99.90
11617;DHT22;5864;52.998;9.068;2023-12-07T16:55:40;2.30;99.90
11617;DHT22;5864;52.998;9.068;2023-12-07T16:58:27;2.30;99.90
11617;DHT22;5864;52.998;9.068;2023-12-07T17:01:13;2.20;99.90
11617;DHT22;5864;52.998;9.068;2023-12-07T17:03:59;2.20;99.90
11617;DHT22;5864;52.998;9.068;2023-12-07T17:06:45;2.20;99.90
11617;DHT22;5864;52.998;9.068;2023-12-07T17:09:31;2.10;99.90
11617;DHT22;5864;52.998;9.068;2023-12-07T17:12:18;2.20;99.90
11617;DHT22;5864;52.998;9.068;2023-12-07T17:15:05;2.10;99.90
11617;DHT22;5864;52.998;9.068;2023-12-07T17:17:50;2.10;99.90
11617;DHT22;5864;52.998;9.068;2023-12-07T17:20:36;2.00;99.90
11617;DHT22;5864;52.998;9.068;2023-12-07T17:23:22;2.00;99.90
11617;DHT22;5864;52.998;9.068;2023-12-07T17:26:09;2.00;99.90
11617;DHT22;5864;52.998;9.068;2023-12-07T17:28:55;2.00;99.90
11617;DHT22;5864;52.998;9.068;2023-12-07T17:31:42;2.00;99.90
11617;DHT22;5864;52.998;9.068;2023-12-07T17:34:28;1.90;99.90
11617;DHT22;5864;52.998;9.068;2023-12-07T17:37:13;1.90;99.90
11617;DHT22;5864;52.998;9.068;2023-12-07T17:39:59;1.90;99.90
11617;DHT22;5864;52.998;9.068;2023-12-07T17:42:46;1.90;99.90
11617;DHT22;5864;52.998;9.068;2023-12-07T17:45:32;1.90;99.90
11617;DHT22;5864;52.998;9.068;2023-12-07T17:48:18;1.90;99.90
11617;DHT22;5864;52.998;9.068;2023-12-07T17:51:05;1.90;99.90
11617;DHT22;5864;52.998;9.068;2023-12-07T17:53:50;2.00;99.90
11617;DHT22;5864;52.998;9.068;2023-12-07T17:56:39;1.90;99.90
11617;DHT22;5864;52.998;9.068;2023-12-07T17:59:26;1.80;99.90
11617;DHT22;5864;52.998;9.068;2023-12-07T18:02:13;1.80;99.90
11617;DHT22;5864;52.998;9.068;2023-12-07T18:04:59;1.80;99.90
11617;DHT22;5864;52.998;9.068;2023-12-07T18:07:45;1.80;99.90